Stolt Efficiency — ZCSP5 — position and weather

sailwx.info

Track history (hours):
 
Tides and Currents Weather Stations Pressure Air Temp Water Temp Dewpoint Dewpoint Depression Visibility Wind Speed Wind Dir Waves Ship Positions

Stolt Efficiency

Last reported at 2018-Jul-16 10:28 UTC. Time now 2018-Jul-16 10:38 UTC.
Position N 38°52' W 009°57'.

Length 176 m; draft 11.5 m.

Type: Ship (hazmat cat B). MMSI: 319488000.

Date/timePositionNaut miles runAvg speedWind from/ knotsBaromVisibWave heightAir tempDewpointWater temp
2018-Jul-16 10:28N 38°52' W 009°57'612.6
2018-Jul-16 10:00N 38°46' W 009°56'612.7
2018-Jul-16 09:30N 38°40' W 009°56'613.0
2018-Jul-16 09:00N 38°34' W 009°54'713.0
2018-Jul-16 08:30N 38°28' W 009°52'1013.1
2018-Jul-16 07:43N 38°17' W 009°49'24310.9
2018-Jul-15 09:26N 35°58' W 005°40'510.6
2018-Jul-15 09:00N 35°58' W 005°34'511.0
2018-Jul-15 08:30N 35°60' W 005°28'611.1
2018-Jul-15 08:00N 36°03' W 005°22'1 2.5
2018-Jul-15 07:30N 36°04' W 005°22'1 1.2
2018-Jul-15 07:00N 36°04' W 005°22'3 5.5
2018-Jul-15 06:30N 36°04' W 005°19'611.3
2018-Jul-15 06:00N 36°05' W 005°12'45811.8
2018-Jul-13 15:04N 37°31' E 004°10'1312.8
2018-Jul-13 14:05N 37°33' E 004°25'712.4
2018-Jul-13 13:29N 37°35' E 004°34'7413.2
2018-Jul-13 07:55N 37°40' E 006°07'3113.7
2018-Jul-13 05:38N 37°39' E 006°46'213.6
2018-Jul-13 05:30N 37°39' E 006°48'713.4
2018-Jul-13 04:59N 37°39' E 006°57'613.2
2018-Jul-13 04:30N 37°39' E 007°05'612.8
2018-Jul-13 04:00N 37°39' E 007°13'612.6
2018-Jul-13 03:30N 37°39' E 007°21'612.4
2018-Jul-13 03:00N 37°39' E 007°29'612.5
2018-Jul-13 02:30N 37°39' E 007°37'612.7
2018-Jul-13 02:00N 37°40' E 007°45'612.7
2018-Jul-13 01:30N 37°40' E 007°53'712.8
2018-Jul-13 00:58N 37°40' E 008°02'2912.7
2018-Jul-12 22:42N 37°39' E 008°38'1112.7
2018-Jul-12 21:50N 37°39' E 008°52'18310.0
2018-Jul-12 03:27N 36°57' E 012°36'  
2018-Jul-08 16:06N 31°26' E 032°24'113.9
2018-Jul-08 16:00N 31°25' E 032°24'713.9
2018-Jul-08 15:30N 31°18' E 032°22'6 9.6
2018-Jul-08 14:54N 31°13' E 032°21'4 7.9
2018-Jul-08 14:28N 31°09' E 032°20'8 9.1
2018-Jul-08 13:37N 31°02' E 032°19'5 9.5
2018-Jul-08 13:08N 30°57' E 032°19'3 8.8
2018-Jul-08 12:50N 30°55' E 032°19'  
Track history (hours):
 
Tides and Currents Weather Stations Pressure Air Temp Water Temp Dewpoint Dewpoint Depression Visibility Wind Speed Wind Dir Waves Ship Positions

Stolt Efficiency

Last reported at 2018-Jul-16 10:28 UTC. Time now 2018-Jul-16 10:38 UTC.
Position N 38°52' W 009°57'.

Length 176 m; draft 11.5 m.

Type: Ship (hazmat cat B). MMSI: 319488000.

Date/timePositionNaut miles runAvg speedWind from/ knotsBaromVisibWave heightAir tempDewpointWater temp
2018-Jul-16 10:28N 38°52' W 009°57'612.6
2018-Jul-16 10:00N 38°46' W 009°56'612.7
2018-Jul-16 09:30N 38°40' W 009°56'613.0
2018-Jul-16 09:00N 38°34' W 009°54'713.0
2018-Jul-16 08:30N 38°28' W 009°52'1013.1
2018-Jul-16 07:43N 38°17' W 009°49'24310.9
2018-Jul-15 09:26N 35°58' W 005°40'510.6
2018-Jul-15 09:00N 35°58' W 005°34'511.0
2018-Jul-15 08:30N 35°60' W 005°28'611.1
2018-Jul-15 08:00N 36°03' W 005°22'1 2.5
2018-Jul-15 07:30N 36°04' W 005°22'1 1.2
2018-Jul-15 07:00N 36°04' W 005°22'3 5.5
2018-Jul-15 06:30N 36°04' W 005°19'611.3
2018-Jul-15 06:00N 36°05' W 005°12'45811.8
2018-Jul-13 15:04N 37°31' E 004°10'1312.8
2018-Jul-13 14:05N 37°33' E 004°25'712.4
2018-Jul-13 13:29N 37°35' E 004°34'7413.2
2018-Jul-13 07:55N 37°40' E 006°07'3113.7
2018-Jul-13 05:38N 37°39' E 006°46'213.6
2018-Jul-13 05:30N 37°39' E 006°48'713.4
2018-Jul-13 04:59N 37°39' E 006°57'613.2
2018-Jul-13 04:30N 37°39' E 007°05'612.8
2018-Jul-13 04:00N 37°39' E 007°13'612.6
2018-Jul-13 03:30N 37°39' E 007°21'612.4
2018-Jul-13 03:00N 37°39' E 007°29'612.5
2018-Jul-13 02:30N 37°39' E 007°37'612.7
2018-Jul-13 02:00N 37°40' E 007°45'612.7
2018-Jul-13 01:30N 37°40' E 007°53'712.8
2018-Jul-13 00:58N 37°40' E 008°02'2912.7
2018-Jul-12 22:42N 37°39' E 008°38'1112.7
2018-Jul-12 21:50N 37°39' E 008°52'18310.0
2018-Jul-12 03:27N 36°57' E 012°36'  
2018-Jul-08 16:06N 31°26' E 032°24'113.9
2018-Jul-08 16:00N 31°25' E 032°24'713.9
2018-Jul-08 15:30N 31°18' E 032°22'6 9.6
2018-Jul-08 14:54N 31°13' E 032°21'4 7.9
2018-Jul-08 14:28N 31°09' E 032°20'8 9.1
2018-Jul-08 13:37N 31°02' E 032°19'5 9.5
2018-Jul-08 13:08N 30°57' E 032°19'3 8.8
2018-Jul-08 12:50N 30°55' E 032°19'  

Dump ship's entire track history